My Meet Scores
Reagan McCarty, Flipstar Gymnastics Academy - MyMeetScores.com
Top100 | Top Teams | Upcoming Meets | Completed Meets | Latest | Add Scores | Help| Support | Bookmark and Share

Reagan McCarty, Flipstar Gymnastics Academy
Personal Bests
LevelVault BarsBeamFloorAA
49.6009.525 8.6509.47537.150
69.2009.475 9.5009.77537.150
89.4259.400 9.4009.62537.300
Meet Scores
Date Meet Team Session Level Division Vault Bars Beam Floor AA
2021-04-23 Region 5 Level 7/8 Regional Championships Illinois State Team 06D 8 JR C1 9.350 4 9.100 18T 9.400 6 9.450 6T 37.300 4
2021-04-09 Illinois Level 7 8 State Championships Flip Star Gymnastics Academy 6 8 Jr C 9.250 5T 9.400 7T 8.800 17T 9.525 4T 36.975 8
2021-03-12 LUCKY INVITATIONAL Flip Star Gymnastics Academy A08 8 Jr B 9.250 2 8.675 12 8.975 13 9.500 1T 36.400 7
2021-03-05 NGC Flip'r S.O.U.L. Invitational Flipstar Gymnastics Academy 09 8 Jr A 9.425 2 8.100 11 9.175 5 9.150 11 35.850 7
2021-02-26 R5 Insider Classic Flipstar Gymnastics Academy B01 8 Jr B 9.425 1 8.750 6 9.000 4T 9.525 1 36.700 2
2021-02-18 Cereal City Classic Flipstar Gymnastics Academy 01 8 9-12 yrs 9.275 2 8.950 4 8.950 6 9.350 1 36.525 2
2021-02-04 Buckeye Classic Elite National Qualifier Flipstar Gymnastics Academy FB6 8 A 9.350 1 9.225 4T 8.950 5 9.400 1 36.925 1
2021-01-21 King Arthur Invitational Flipstar Gymnastics Academy 2 8 JR 9.400 3 9.150 7T 8.675 11T 8.925 11 36.150 7
2020-12-04 Flipstar's Home for the Holidays Flipstar Gymnastics Academy 6 8 All 9.300 1T 8.725 3 8.650 7 9.625 1 36.300 3
2020-02-28 MEGA Spring Invite 2020 Flipstar Gymnastics Academy 2 6 Junior 9.000 3 9.475 5 8.475 21 9.375 2T 36.325 8
2020-02-21 Kinetic Classic Flipstar Gymnastics Academy 01 6 Middle 9.200 9T 9.250 7T 9.125 24T 9.550 1 37.125 3
2020-02-07 IGI Chicago Style Meet Flipstar Gymnastics Academy 213 6 B 8.875 8 9.300 1T 8.550 15 9.525 1 36.250 4
2020-01-30 Circle of Stars Flipstar Gymnastics Center B09 6 Jr C 9.000 2 9.375 3 9.450 1 9.300 1T 37.125 1
2020-01-24 King Arthur Invitational Flipstar Gymnastics Academy 2 6 SR 9.025 3 9.100 1 9.500 1 9.525 1 37.150 1
2019-12-13 Crossroads Classic Flipstar Gymnastics Academy 7 6 Jr B 8.700 9 9.250 4 8.200 19 9.350 4 35.500 8
2019-12-07 Home for the Holidays 2019 Flipstar Gymnastics Academy 6 6 Middle 8.950 2 9.050 2 9.350 4 9.775 1 37.125 1
2019-03-22 Illinois Gymnastics State Championships Flipstar Gymnastics Academy 4 4 JR F 9.600 1 9.525 2T 8.550 23 9.475 1T 37.150 2
2019-03-01 2019 MEGA Spring Invite Flipstar Gymnastics Academy All 4 All Ages 9.300 2T 9.050 25T 8.550 90T 9.350 10T 36.250 25
2019-02-23 Kinetic Classic 2019 Flipstar Gymnastics Academy 1 4 Older 9.000 4 9.400 2 8.375 37 9.225 3T 36.000 6
2019-01-25 King Arthur Invitational Flipstar Gymnastics Academy 1 4 Sr B 8.725 5 8.750 9 8.450 9 9.425 1 35.350 6
2019-01-11 Circle of Stars Gymnastics Flipstar Gymnastics Academy C06 4 Junior C 8.950 3T 9.125 6 8.650 18 9.300 3T 36.025 8
2018-12-07 Horton Invite Flipstar Gymnastics Academy 2 4 Jr A 9.250 1 8.775 8T 8.600 9T 9.375 3T 36.000 5
Get your scores on
a t-shirt, pin, or hoodie